createdAt,value
2022-09-06T00:00:26.424Z,20.61
2022-09-06T00:02:54.292Z,20.43
2022-09-06T00:05:21.899Z,20.30
2022-09-06T00:07:49.182Z,20.08
2022-09-06T00:10:17.012Z,20.09
2022-09-06T00:12:44.473Z,20.25
2022-09-06T00:15:11.750Z,20.18
2022-09-06T00:17:39.144Z,20.26
2022-09-06T00:20:09.205Z,20.25
2022-09-06T00:22:37.811Z,20.33
2022-09-06T00:25:06.491Z,20.26
2022-09-06T00:27:34.901Z,20.12
2022-09-06T00:30:04.600Z,20.07
2022-09-06T00:32:32.769Z,20.07
2022-09-06T00:34:59.975Z,20.03
2022-09-06T00:37:27.241Z,19.85
2022-09-06T00:39:54.741Z,19.83
2022-09-06T00:42:21.987Z,19.94
2022-09-06T00:44:50.648Z,19.93
2022-09-06T00:47:18.501Z,19.99
2022-09-06T00:49:51.565Z,19.82
2022-09-06T00:52:19.797Z,20.08
2022-09-06T00:54:49.219Z,19.93
2022-09-06T00:57:18.306Z,19.92
2022-09-06T00:59:47.313Z,20.00
2022-09-06T01:02:15.337Z,19.98
2022-09-06T01:04:45.115Z,19.90
2022-09-06T01:13:42.112Z,19.99
2022-09-06T01:16:38.798Z,19.81
2022-09-06T01:30:26.268Z,19.46
2022-09-06T01:35:58.114Z,19.33
2022-09-06T01:38:25.864Z,19.36
2022-09-06T01:40:53.103Z,19.46
2022-09-06T01:43:40.834Z,19.42
2022-09-06T01:46:39.507Z,19.20
2022-09-06T01:49:34.093Z,19.17
2022-09-06T01:55:33.920Z,19.22
2022-09-06T02:01:30.281Z,19.31
2022-09-06T02:06:43.314Z,19.53
2022-09-06T02:09:16.938Z,19.36
2022-09-06T02:11:51.572Z,19.46
2022-09-06T02:14:26.374Z,19.50
2022-09-06T02:17:00.431Z,19.65
2022-09-06T02:19:37.538Z,19.44
2022-09-06T02:22:10.528Z,19.40
2022-09-06T02:24:40.706Z,19.34
2022-09-06T02:27:08.225Z,19.46
2022-09-06T02:29:35.950Z,19.44
2022-09-06T02:34:41.617Z,19.14
2022-09-06T02:37:12.439Z,19.20
2022-09-06T02:39:44.790Z,19.46
2022-09-06T02:42:14.769Z,19.24
2022-09-06T02:44:41.815Z,19.60
2022-09-06T02:47:08.945Z,19.73
2022-09-06T02:49:36.629Z,19.91
2022-09-06T02:52:03.883Z,20.01
2022-09-06T02:54:31.299Z,20.04
2022-09-06T02:56:58.607Z,20.14
2022-09-06T02:59:25.832Z,20.25
2022-09-06T03:01:53.174Z,20.14
2022-09-06T03:04:21.011Z,20.20
2022-09-06T03:06:48.166Z,20.26
2022-09-06T03:09:15.803Z,20.38
2022-09-06T03:11:42.933Z,20.37
2022-09-06T03:14:10.112Z,20.35
2022-09-06T03:16:38.471Z,20.34
2022-09-06T03:19:05.689Z,19.53
2022-09-06T03:21:32.942Z,19.01
2022-09-06T03:24:00.138Z,18.57
2022-09-06T03:26:28.113Z,18.40
2022-09-06T03:28:55.349Z,18.71
2022-09-06T03:31:22.579Z,18.79
2022-09-06T03:33:49.699Z,18.68
2022-09-06T03:36:17.023Z,18.99
2022-09-06T03:38:44.275Z,19.06
2022-09-06T03:41:11.484Z,18.89
2022-09-06T03:43:38.556Z,19.10
2022-09-06T03:46:05.957Z,19.00
2022-09-06T03:48:33.120Z,19.04
2022-09-06T03:51:00.258Z,18.92
2022-09-06T03:53:29.677Z,18.59
2022-09-06T03:55:58.252Z,18.80
2022-09-06T03:58:31.206Z,18.61
2022-09-06T04:01:10.075Z,18.70
2022-09-06T04:03:38.754Z,18.72
2022-09-06T04:06:07.188Z,18.70
2022-09-06T04:08:35.651Z,18.78
2022-09-06T04:11:04.180Z,18.86
2022-09-06T04:13:32.908Z,19.11
2022-09-06T04:16:00.794Z,18.84
2022-09-06T04:18:32.791Z,18.68
2022-09-06T04:21:00.149Z,18.68
2022-09-06T04:23:28.816Z,18.50
2022-09-06T04:25:58.826Z,18.74
2022-09-06T04:28:30.395Z,18.95
2022-09-06T04:33:38.209Z,19.07
2022-09-06T04:36:09.966Z,18.86
2022-09-06T04:38:40.955Z,18.89
2022-09-06T04:41:10.466Z,18.65
2022-09-06T04:43:38.259Z,18.90
2022-09-06T04:46:20.407Z,18.78
2022-09-06T04:48:49.243Z,18.88
2022-09-06T04:51:16.874Z,19.11
2022-09-06T04:53:45.463Z,18.94
2022-09-06T04:56:18.024Z,18.98
2022-09-06T04:58:47.313Z,18.95
2022-09-06T05:01:15.531Z,18.87
2022-09-06T05:03:43.052Z,19.07
2022-09-06T05:06:20.631Z,18.95
2022-09-06T05:08:48.868Z,18.84
2022-09-06T05:11:17.648Z,18.92
2022-09-06T05:13:46.971Z,18.93
2022-09-06T05:16:14.161Z,18.99
2022-09-06T05:18:41.811Z,19.07
2022-09-06T05:21:09.438Z,19.34
2022-09-06T05:23:36.689Z,19.46
2022-09-06T05:26:03.956Z,19.25
2022-09-06T05:28:31.109Z,19.28
2022-09-06T05:31:25.540Z,19.24
2022-09-06T05:33:54.344Z,19.39
2022-09-06T05:36:23.634Z,19.40
2022-09-06T05:38:53.473Z,19.49
2022-09-06T05:41:21.979Z,19.14
2022-09-06T05:43:49.914Z,19.20
2022-09-06T05:46:17.710Z,19.14
2022-09-06T05:48:54.371Z,19.37
2022-09-06T05:51:21.832Z,19.59
2022-09-06T05:53:49.247Z,19.69
2022-09-06T05:56:19.020Z,19.55
2022-09-06T05:58:46.555Z,19.85
2022-09-06T06:01:18.974Z,19.95
2022-09-06T06:06:35.433Z,20.01
2022-09-06T06:09:03.159Z,19.99
2022-09-06T06:11:31.782Z,19.92
2022-09-06T06:13:59.057Z,19.94
2022-09-06T06:16:26.419Z,19.83
2022-09-06T06:18:53.958Z,20.27
2022-09-06T06:24:04.806Z,20.39
2022-09-06T06:26:35.439Z,20.17
2022-09-06T06:29:03.967Z,20.09
2022-09-06T06:31:33.186Z,20.33
2022-09-06T06:39:17.685Z,20.81
2022-09-06T06:41:45.322Z,20.69
2022-09-06T06:44:28.394Z,20.65
2022-09-06T06:46:57.994Z,20.92
2022-09-06T06:49:25.493Z,20.93
2022-09-06T06:51:53.029Z,20.51
2022-09-06T06:54:22.613Z,20.65
2022-09-06T06:56:50.028Z,20.71
2022-09-06T06:59:17.236Z,21.00
2022-09-06T07:01:44.727Z,20.92
2022-09-06T07:04:12.498Z,21.27
2022-09-06T07:12:29.337Z,21.73
2022-09-06T07:14:56.447Z,21.91
2022-09-06T07:17:23.692Z,21.98
2022-09-06T07:22:40.390Z,21.86
2022-09-06T07:25:09.514Z,21.95
2022-09-06T07:30:11.869Z,21.51
2022-09-06T07:32:39.025Z,20.83
2022-09-06T07:35:07.078Z,21.41
2022-09-06T07:37:34.402Z,21.86
2022-09-06T07:40:04.030Z,22.10
2022-09-06T07:42:36.542Z,22.19
2022-09-06T07:45:06.080Z,22.42
2022-09-06T07:53:13.813Z,22.95
2022-09-06T07:55:43.385Z,23.17
2022-09-06T07:58:11.071Z,23.40
2022-09-06T08:00:41.022Z,23.53
2022-09-06T08:03:08.629Z,23.47
2022-09-06T08:11:19.389Z,23.41
2022-09-06T08:13:54.888Z,23.82
2022-09-06T08:16:24.269Z,23.95
2022-09-06T08:18:59.148Z,24.22
2022-09-06T08:21:30.069Z,23.79
2022-09-06T08:24:00.683Z,23.97
2022-09-06T08:26:30.131Z,24.32
2022-09-06T08:29:00.491Z,24.36
2022-09-06T08:31:30.396Z,24.26
2022-09-06T08:33:59.381Z,24.57
2022-09-06T08:36:29.752Z,24.81
2022-09-06T08:38:58.855Z,25.00
2022-09-06T08:41:31.705Z,25.20
2022-09-06T08:46:42.862Z,25.80
2022-09-06T08:49:10.629Z,25.93
2022-09-06T08:54:49.199Z,25.75
2022-09-06T08:58:16.399Z,26.08
2022-09-06T09:00:58.318Z,26.33
2022-09-06T09:06:10.130Z,26.85
2022-09-06T09:11:21.146Z,27.09
2022-09-06T09:16:41.213Z,27.02
2022-09-06T09:19:09.469Z,26.77
2022-09-06T09:21:40.093Z,27.30
2022-09-06T09:24:12.053Z,27.38
2022-09-06T09:29:17.889Z,27.78
2022-09-06T09:31:53.489Z,27.81
2022-09-06T09:34:39.771Z,28.73
2022-09-06T09:40:29.337Z,29.27
2022-09-06T09:43:14.971Z,29.16
2022-09-06T09:45:43.470Z,29.64
2022-09-06T09:48:28.001Z,29.68
2022-09-06T09:50:56.134Z,29.37
2022-09-06T09:53:24.720Z,29.70
2022-09-06T09:55:57.813Z,28.77
2022-09-06T09:58:35.941Z,28.69
2022-09-06T10:01:19.994Z,29.43
2022-09-06T10:09:35.037Z,28.95
2022-09-06T10:12:02.529Z,29.17
2022-09-06T10:14:40.209Z,29.29
2022-09-06T10:17:08.189Z,28.91
2022-09-06T10:36:11.839Z,29.38
2022-09-06T10:46:46.316Z,29.98
2022-09-06T10:49:18.882Z,30.31
2022-09-06T10:51:54.791Z,30.10
2022-09-06T10:54:24.552Z,30.51
2022-09-06T10:57:02.594Z,30.64
2022-09-06T11:05:50.171Z,30.58
2022-09-06T11:11:26.744Z,30.81
2022-09-06T11:13:53.926Z,30.68
2022-09-06T11:16:32.637Z,30.89
2022-09-06T11:19:17.591Z,30.78
2022-09-06T11:22:17.034Z,30.92
2022-09-06T11:30:16.106Z,30.75
2022-09-06T11:32:49.661Z,30.51
2022-09-06T11:35:34.909Z,30.63
2022-09-06T11:41:15.975Z,30.40
2022-09-06T11:49:40.058Z,30.82
2022-09-06T11:53:07.661Z,31.43
2022-09-06T11:58:29.151Z,31.11
2022-09-06T12:12:06.932Z,34.15
2022-09-06T12:14:40.350Z,34.09
2022-09-06T12:27:58.088Z,35.96
2022-09-06T12:30:44.841Z,37.80
2022-09-06T12:33:36.653Z,36.61
2022-09-06T12:36:24.859Z,36.90
2022-09-06T12:41:43.661Z,40.21
2022-09-06T12:44:13.488Z,39.21
2022-09-06T12:46:48.033Z,37.99
2022-09-06T12:49:20.457Z,37.55
2022-09-06T12:51:48.376Z,36.62
2022-09-06T12:54:23.039Z,37.16
2022-09-06T12:56:51.380Z,37.72
2022-09-06T12:59:25.074Z,37.12
2022-09-06T13:07:16.944Z,35.98
2022-09-06T13:09:49.023Z,35.01
2022-09-06T13:15:17.462Z,33.96
2022-09-06T13:17:44.595Z,31.58
2022-09-06T13:22:51.488Z,31.78
2022-09-06T13:27:58.111Z,31.99
2022-09-06T13:30:46.752Z,31.53
2022-09-06T13:33:25.757Z,31.89
2022-09-06T13:36:09.204Z,31.82
2022-09-06T13:41:38.790Z,31.30
2022-09-06T13:44:20.577Z,31.31
2022-09-06T13:46:53.437Z,31.81
2022-09-06T13:49:21.120Z,32.15
2022-09-06T13:51:48.258Z,32.71
2022-09-06T13:54:16.381Z,33.27
2022-09-06T13:56:49.871Z,34.60
2022-09-06T13:59:18.897Z,35.33
2022-09-06T14:01:50.098Z,35.73
2022-09-06T14:04:21.468Z,35.79
2022-09-06T14:06:49.142Z,35.45
2022-09-06T14:09:16.510Z,34.56
2022-09-06T14:11:48.248Z,33.98
2022-09-06T14:14:17.862Z,33.93
2022-09-06T14:16:47.718Z,34.65
2022-09-06T14:19:15.601Z,35.55
2022-09-06T14:21:43.403Z,37.10
2022-09-06T14:24:10.753Z,38.99
2022-09-06T14:26:38.713Z,39.48
2022-09-06T14:29:06.385Z,38.92
2022-09-06T14:31:34.274Z,38.08
2022-09-06T14:34:03.971Z,37.20
2022-09-06T14:36:33.236Z,36.70
2022-09-06T14:39:01.889Z,37.63
2022-09-06T14:41:29.328Z,39.15
2022-09-06T14:43:58.900Z,39.96
2022-09-06T14:46:28.269Z,41.29
2022-09-06T14:49:03.372Z,41.06
2022-09-06T14:51:31.034Z,40.04
2022-09-06T14:54:04.233Z,39.46
2022-09-06T14:56:32.320Z,39.05
2022-09-06T14:59:00.440Z,39.50
2022-09-06T15:01:37.122Z,38.83
2022-09-06T15:04:08.557Z,38.00
2022-09-06T15:06:40.100Z,37.61
2022-09-06T15:09:08.152Z,37.92
2022-09-06T15:14:17.371Z,37.12
2022-09-06T15:16:48.232Z,37.41
2022-09-06T15:19:17.544Z,39.67
2022-09-06T15:21:46.873Z,41.49
2022-09-06T15:24:15.411Z,42.69
2022-09-06T15:26:43.383Z,42.68
2022-09-06T15:29:12.740Z,41.27
2022-09-06T15:31:41.810Z,41.50
2022-09-06T15:34:10.446Z,40.71
2022-09-06T15:36:38.284Z,39.52
2022-09-06T15:39:06.332Z,38.32
2022-09-06T15:41:37.670Z,37.18
2022-09-06T15:44:13.615Z,36.39
2022-09-06T15:49:28.650Z,35.37
2022-09-06T15:51:58.317Z,35.16
2022-09-06T15:54:46.377Z,34.68
2022-09-06T15:57:16.306Z,34.29
2022-09-06T15:59:44.920Z,34.06
2022-09-06T16:02:13.273Z,34.10
2022-09-06T16:04:41.017Z,33.78
2022-09-06T16:07:09.659Z,33.93
2022-09-06T16:09:36.837Z,33.95
2022-09-06T16:12:04.355Z,34.43
2022-09-06T16:14:31.996Z,34.33
2022-09-06T16:16:59.833Z,34.58
2022-09-06T16:19:27.452Z,34.79
2022-09-06T16:21:54.687Z,34.51
2022-09-06T16:24:22.954Z,34.89
2022-09-06T16:26:50.773Z,34.31
2022-09-06T16:29:19.070Z,33.94
2022-09-06T16:31:47.182Z,34.42
2022-09-06T16:34:15.642Z,34.56
2022-09-06T16:36:42.918Z,34.12
2022-09-06T16:39:10.815Z,34.16
2022-09-06T16:41:42.869Z,33.98
2022-09-06T16:44:16.170Z,33.79
2022-09-06T16:46:46.627Z,32.88
2022-09-06T16:49:16.924Z,32.01
2022-09-06T16:51:45.173Z,31.46
2022-09-06T16:54:14.007Z,30.72
2022-09-06T16:56:41.745Z,31.05
2022-09-06T16:59:11.325Z,31.54
2022-09-06T17:01:41.890Z,31.79
2022-09-06T17:04:10.413Z,30.90
2022-09-06T17:06:44.157Z,30.96
2022-09-06T17:09:16.245Z,30.97
2022-09-06T17:11:43.613Z,30.55
2022-09-06T17:14:11.148Z,30.10
2022-09-06T17:17:00.754Z,29.61
2022-09-06T17:19:29.747Z,29.32
2022-09-06T17:21:57.612Z,29.67
2022-09-06T17:24:26.877Z,29.42
2022-09-06T17:26:54.153Z,29.33
2022-09-06T17:29:22.034Z,29.29
2022-09-06T17:31:49.547Z,29.35
2022-09-06T17:34:16.813Z,29.41
2022-09-06T17:36:44.109Z,29.36
2022-09-06T17:39:15.599Z,29.26
2022-09-06T17:41:46.945Z,29.16
2022-09-06T17:44:18.974Z,29.05
2022-09-06T17:47:09.069Z,28.96
2022-09-06T17:49:35.026Z,28.93
2022-09-06T17:52:02.397Z,28.82
2022-09-06T17:54:31.767Z,28.56
2022-09-06T17:56:59.773Z,28.55
2022-09-06T17:59:30.413Z,28.33
2022-09-06T18:02:00.373Z,28.34
2022-09-06T18:04:28.094Z,28.03
2022-09-06T18:06:55.442Z,28.12
2022-09-06T18:09:22.629Z,27.98
2022-09-06T18:11:49.757Z,27.94
2022-09-06T18:14:21.857Z,27.84
2022-09-06T18:16:52.175Z,27.73
2022-09-06T18:19:44.812Z,27.56
2022-09-06T18:22:12.043Z,27.22
2022-09-06T18:24:39.239Z,26.62
2022-09-06T18:27:06.577Z,26.54
2022-09-06T18:29:33.749Z,26.29
2022-09-06T18:32:01.021Z,26.57
2022-09-06T18:34:28.350Z,26.50
2022-09-06T18:36:55.577Z,26.47
2022-09-06T18:39:22.769Z,26.47
2022-09-06T18:42:10.002Z,25.63
2022-09-06T18:44:38.356Z,26.01
2022-09-06T18:47:08.690Z,26.07
2022-09-06T18:49:39.496Z,25.78
2022-09-06T18:52:09.362Z,25.86
2022-09-06T18:54:36.982Z,25.70
2022-09-06T18:57:04.557Z,25.79
2022-09-06T18:59:31.929Z,25.73
2022-09-06T19:01:59.322Z,25.61
2022-09-06T19:04:26.744Z,25.52
2022-09-06T19:06:54.097Z,25.46
2022-09-06T19:09:21.794Z,25.55
2022-09-06T19:11:51.608Z,25.51
2022-09-06T19:14:19.444Z,25.24
2022-09-06T19:16:48.595Z,25.29
2022-09-06T19:19:16.199Z,25.32
2022-09-06T19:21:44.607Z,24.77
2022-09-06T19:24:12.568Z,24.68
2022-09-06T19:26:43.445Z,24.64
2022-09-06T19:29:17.512Z,24.80
2022-09-06T19:31:47.135Z,24.66
2022-09-06T19:34:15.855Z,24.64
2022-09-06T19:36:44.637Z,24.30
2022-09-06T19:39:15.343Z,24.50
2022-09-06T19:41:44.915Z,24.60
2022-09-06T19:44:12.945Z,24.48
2022-09-06T19:46:45.684Z,24.56
2022-09-06T19:49:17.291Z,24.51
2022-09-06T19:51:46.539Z,24.16
2022-09-06T19:54:15.845Z,24.26
2022-09-06T19:56:48.545Z,24.22
2022-09-06T19:59:17.705Z,24.12
2022-09-06T20:01:47.545Z,24.14
2022-09-06T20:04:16.018Z,24.06
2022-09-06T20:06:43.555Z,23.89
2022-09-06T20:09:11.458Z,23.93
2022-09-06T20:11:40.576Z,23.67
2022-09-06T20:14:10.691Z,23.70
2022-09-06T20:16:41.839Z,23.53
2022-09-06T20:19:12.558Z,23.50
2022-09-06T20:21:40.358Z,23.42
2022-09-06T20:24:08.023Z,23.59
2022-09-06T20:26:35.828Z,23.73
2022-09-06T20:29:04.856Z,23.57
2022-09-06T20:31:33.479Z,23.10
2022-09-06T20:34:02.794Z,23.33
2022-09-06T20:36:30.223Z,23.38
2022-09-06T20:38:57.458Z,23.13
2022-09-06T20:41:26.800Z,22.98
2022-09-06T20:43:57.572Z,23.16
2022-09-06T20:46:28.567Z,23.26
2022-09-06T20:48:59.724Z,23.24
2022-09-06T20:51:27.050Z,23.23
2022-09-06T20:53:57.597Z,23.11
2022-09-06T20:56:29.952Z,22.90
2022-09-06T20:59:00.942Z,22.97
2022-09-06T21:01:33.574Z,22.83
2022-09-06T21:04:04.079Z,22.99
2022-09-06T21:06:35.557Z,23.02
2022-09-06T21:09:06.554Z,23.05
2022-09-06T21:11:34.820Z,23.15
2022-09-06T21:14:02.413Z,23.24
2022-09-06T21:16:30.955Z,23.26
2022-09-06T21:19:01.705Z,23.28
2022-09-06T21:21:31.617Z,23.35
2022-09-06T21:24:02.204Z,23.30
2022-09-06T21:26:29.952Z,23.34
2022-09-06T21:28:58.381Z,23.15
2022-09-06T21:31:29.515Z,23.25
2022-09-06T21:34:01.460Z,23.20
2022-09-06T21:36:41.867Z,23.19
2022-09-06T21:39:17.276Z,22.42
2022-09-06T21:41:46.540Z,21.77
2022-09-06T21:44:14.303Z,22.49
2022-09-06T21:46:42.996Z,22.78
2022-09-06T21:49:14.938Z,22.81
2022-09-06T21:51:48.226Z,22.94
2022-09-06T21:54:45.454Z,22.93
2022-09-06T21:57:53.184Z,22.99
2022-09-06T22:00:21.682Z,22.70
2022-09-06T22:02:49.708Z,22.11
2022-09-06T22:05:16.970Z,22.35
2022-09-06T22:07:44.215Z,22.59
2022-09-06T22:10:11.477Z,22.81
2022-09-06T22:12:38.679Z,22.85
2022-09-06T22:15:06.679Z,22.70
2022-09-06T22:17:34.369Z,22.48
2022-09-06T22:20:03.814Z,21.99
2022-09-06T22:22:45.781Z,22.26
2022-09-06T22:25:13.778Z,22.46
2022-09-06T22:27:41.505Z,22.42
2022-09-06T22:30:09.678Z,22.52
2022-09-06T22:32:37.090Z,22.29
2022-09-06T22:35:06.053Z,22.42
2022-09-06T22:37:34.802Z,22.47
2022-09-06T22:40:03.044Z,22.39
2022-09-06T22:42:30.715Z,22.28
2022-09-06T22:44:57.826Z,22.16
2022-09-06T22:47:25.446Z,21.91
2022-09-06T22:49:52.983Z,22.02
2022-09-06T22:52:20.245Z,22.05
2022-09-06T22:54:47.714Z,22.14
2022-09-06T22:57:15.363Z,22.08
2022-09-06T22:59:42.582Z,22.15
2022-09-06T23:02:09.866Z,21.87
2022-09-06T23:04:37.001Z,21.39
2022-09-06T23:07:04.921Z,21.58
2022-09-06T23:09:32.083Z,21.72
2022-09-06T23:11:59.203Z,21.75
2022-09-06T23:14:28.761Z,21.68
2022-09-06T23:16:58.830Z,21.85
2022-09-06T23:19:26.063Z,21.94
2022-09-06T23:21:53.160Z,22.00
2022-09-06T23:24:20.327Z,22.03
2022-09-06T23:26:47.561Z,21.96
2022-09-06T23:29:14.811Z,21.96
2022-09-06T23:31:42.534Z,21.58
2022-09-06T23:34:09.729Z,21.89
2022-09-06T23:36:36.954Z,22.02
2022-09-06T23:39:07.055Z,22.01
2022-09-06T23:41:34.991Z,21.70
2022-09-06T23:44:02.590Z,21.39
2022-09-06T23:46:30.235Z,21.61
2022-09-06T23:48:57.510Z,21.61
2022-09-06T23:51:24.973Z,21.58
2022-09-06T23:53:52.203Z,21.59
2022-09-06T23:56:20.711Z,21.36
2022-09-06T23:58:47.856Z,21.30
